sensor_id;sensor_type;location;lat;lon;timestamp;P1;durP1;ratioP1;P2;durP2;ratioP2
79365;SDS011;68833;53.160;17.920;2023-04-19T00:16:27;4.50;;;2.20;;
79365;SDS011;68833;53.160;17.920;2023-04-19T00:18:56;3.90;;;2.50;;
79365;SDS011;68833;53.160;17.920;2023-04-19T00:21:23;4.50;;;2.40;;
79365;SDS011;68833;53.160;17.920;2023-04-19T00:23:49;5.60;;;2.40;;
79365;SDS011;68833;53.160;17.920;2023-04-19T00:26:16;3.20;;;2.60;;
79365;SDS011;68833;53.160;17.920;2023-04-19T00:40:26;5.00;;;2.20;;
79365;SDS011;68833;53.160;17.920;2023-04-19T00:42:56;3.00;;;2.20;;
79365;SDS011;68833;53.160;17.920;2023-04-19T00:45:26;3.60;;;1.90;;
79365;SDS011;68833;53.160;17.920;2023-04-19T01:00:00;2.30;;;2.10;;
79365;SDS011;68833;53.160;17.920;2023-04-19T01:27:44;3.40;;;2.20;;
79365;SDS011;68833;53.160;17.920;2023-04-19T01:30:13;2.00;;;1.60;;
79365;SDS011;68833;53.160;17.920;2023-04-19T01:32:40;2.90;;;2.10;;
79365;SDS011;68833;53.160;17.920;2023-04-19T01:35:06;5.10;;;2.70;;
79365;SDS011;68833;53.160;17.920;2023-04-19T01:58:59;2.80;;;1.80;;
79365;SDS011;68833;53.160;17.920;2023-04-19T02:01:30;3.40;;;2.40;;
79365;SDS011;68833;53.160;17.920;2023-04-19T02:03:57;3.10;;;2.00;;
79365;SDS011;68833;53.160;17.920;2023-04-19T02:10:46;4.20;;;2.40;;
79365;SDS011;68833;53.160;17.920;2023-04-19T02:17:45;4.70;;;2.30;;
79365;SDS011;68833;53.160;17.920;2023-04-19T03:42:54;3.70;;;2.60;;
79365;SDS011;68833;53.160;17.920;2023-04-19T03:45:27;7.50;;;3.50;;
79365;SDS011;68833;53.160;17.920;2023-04-19T03:47:54;5.20;;;2.80;;
79365;SDS011;68833;53.160;17.920;2023-04-19T03:59:00;4.20;;;2.80;;
79365;SDS011;68833;53.160;17.920;2023-04-19T04:01:28;6.30;;;3.80;;
79365;SDS011;68833;53.160;17.920;2023-04-19T04:03:54;5.00;;;3.00;;
79365;SDS011;68833;53.160;17.920;2023-04-19T04:09:39;5.90;;;3.20;;
79365;SDS011;68833;53.160;17.920;2023-04-19T04:12:05;4.00;;;2.50;;
79365;SDS011;68833;53.160;17.920;2023-04-19T04:14:32;5.20;;;3.10;;
79365;SDS011;68833;53.160;17.920;2023-04-19T04:16:59;5.80;;;2.90;;
79365;SDS011;68833;53.160;17.920;2023-04-19T04:19:25;6.10;;;3.90;;
79365;SDS011;68833;53.160;17.920;2023-04-19T04:21:52;6.70;;;3.50;;
79365;SDS011;68833;53.160;17.920;2023-04-19T04:24:18;5.90;;;3.30;;
79365;SDS011;68833;53.160;17.920;2023-04-19T04:27:01;5.30;;;3.40;;
79365;SDS011;68833;53.160;17.920;2023-04-19T04:29:31;6.10;;;3.90;;
79365;SDS011;68833;53.160;17.920;2023-04-19T04:31:58;5.90;;;3.90;;
79365;SDS011;68833;53.160;17.920;2023-04-19T04:34:37;5.90;;;5.20;;
79365;SDS011;68833;53.160;17.920;2023-04-19T04:37:07;7.80;;;3.10;;
79365;SDS011;68833;53.160;17.920;2023-04-19T04:39:34;7.40;;;3.20;;
79365;SDS011;68833;53.160;17.920;2023-04-19T04:42:04;6.80;;;3.00;;
79365;SDS011;68833;53.160;17.920;2023-04-19T04:44:34;5.70;;;3.40;;
79365;SDS011;68833;53.160;17.920;2023-04-19T04:47:01;4.70;;;2.80;;
79365;SDS011;68833;53.160;17.920;2023-04-19T04:49:28;5.80;;;3.00;;
79365;SDS011;68833;53.160;17.920;2023-04-19T04:51:57;6.50;;;3.40;;
79365;SDS011;68833;53.160;17.920;2023-04-19T04:54:24;6.00;;;2.80;;
79365;SDS011;68833;53.160;17.920;2023-04-19T04:56:50;5.60;;;2.80;;
79365;SDS011;68833;53.160;17.920;2023-04-19T04:59:17;5.30;;;2.50;;
79365;SDS011;68833;53.160;17.920;2023-04-19T05:01:45;4.70;;;2.60;;
79365;SDS011;68833;53.160;17.920;2023-04-19T05:04:12;5.80;;;3.20;;
79365;SDS011;68833;53.160;17.920;2023-04-19T05:06:39;4.90;;;2.90;;
79365;SDS011;68833;53.160;17.920;2023-04-19T05:09:08;3.20;;;2.50;;
79365;SDS011;68833;53.160;17.920;2023-04-19T05:11:35;4.40;;;2.70;;
79365;SDS011;68833;53.160;17.920;2023-04-19T05:14:02;5.00;;;2.80;;
79365;SDS011;68833;53.160;17.920;2023-04-19T05:16:31;7.80;;;3.20;;
79365;SDS011;68833;53.160;17.920;2023-04-19T05:18:57;8.30;;;3.50;;
79365;SDS011;68833;53.160;17.920;2023-04-19T05:21:28;4.70;;;3.30;;
79365;SDS011;68833;53.160;17.920;2023-04-19T05:23:55;5.50;;;2.60;;
79365;SDS011;68833;53.160;17.920;2023-04-19T05:26:22;6.30;;;3.50;;
79365;SDS011;68833;53.160;17.920;2023-04-19T05:28:51;3.90;;;2.50;;
79365;SDS011;68833;53.160;17.920;2023-04-19T05:31:31;4.30;;;2.70;;
79365;SDS011;68833;53.160;17.920;2023-04-19T05:34:08;3.20;;;2.30;;
79365;SDS011;68833;53.160;17.920;2023-04-19T05:36:36;4.20;;;3.60;;
79365;SDS011;68833;53.160;17.920;2023-04-19T05:39:03;5.30;;;3.60;;
79365;SDS011;68833;53.160;17.920;2023-04-19T05:41:30;4.40;;;2.70;;
79365;SDS011;68833;53.160;17.920;2023-04-19T05:43:56;4.50;;;2.90;;
79365;SDS011;68833;53.160;17.920;2023-04-19T05:46:23;5.00;;;2.60;;
79365;SDS011;68833;53.160;17.920;2023-04-19T05:48:49;5.40;;;3.80;;
79365;SDS011;68833;53.160;17.920;2023-04-19T05:51:36;6.00;;;3.10;;
79365;SDS011;68833;53.160;17.920;2023-04-19T05:54:13;5.20;;;2.70;;
79365;SDS011;68833;53.160;17.920;2023-04-19T05:56:44;7.60;;;4.40;;
79365;SDS011;68833;53.160;17.920;2023-04-19T05:59:11;4.70;;;3.20;;
79365;SDS011;68833;53.160;17.920;2023-04-19T06:01:39;5.30;;;2.40;;
79365;SDS011;68833;53.160;17.920;2023-04-19T06:04:06;4.30;;;2.60;;
79365;SDS011;68833;53.160;17.920;2023-04-19T06:06:32;7.60;;;4.30;;
79365;SDS011;68833;53.160;17.920;2023-04-19T06:08:58;6.80;;;3.50;;
79365;SDS011;68833;53.160;17.920;2023-04-19T06:11:24;4.70;;;3.10;;
79365;SDS011;68833;53.160;17.920;2023-04-19T06:13:51;5.40;;;3.60;;
79365;SDS011;68833;53.160;17.920;2023-04-19T06:16:17;5.30;;;3.80;;
79365;SDS011;68833;53.160;17.920;2023-04-19T06:18:44;4.00;;;2.70;;
79365;SDS011;68833;53.160;17.920;2023-04-19T06:21:13;5.80;;;2.80;;
79365;SDS011;68833;53.160;17.920;2023-04-19T06:23:42;5.70;;;2.90;;
79365;SDS011;68833;53.160;17.920;2023-04-19T06:26:08;6.60;;;3.70;;
79365;SDS011;68833;53.160;17.920;2023-04-19T06:28:35;3.60;;;2.60;;
79365;SDS011;68833;53.160;17.920;2023-04-19T06:31:01;4.50;;;3.20;;
79365;SDS011;68833;53.160;17.920;2023-04-19T06:33:28;6.40;;;3.70;;
79365;SDS011;68833;53.160;17.920;2023-04-19T06:35:54;5.90;;;3.00;;
79365;SDS011;68833;53.160;17.920;2023-04-19T06:38:23;3.70;;;2.70;;
79365;SDS011;68833;53.160;17.920;2023-04-19T06:40:50;4.80;;;2.80;;
79365;SDS011;68833;53.160;17.920;2023-04-19T06:43:16;5.30;;;2.80;;
79365;SDS011;68833;53.160;17.920;2023-04-19T06:45:42;6.50;;;3.00;;
79365;SDS011;68833;53.160;17.920;2023-04-19T06:48:08;5.60;;;3.60;;
79365;SDS011;68833;53.160;17.920;2023-04-19T06:50:34;5.80;;;3.60;;
79365;SDS011;68833;53.160;17.920;2023-04-19T06:53:01;4.10;;;3.00;;
79365;SDS011;68833;53.160;17.920;2023-04-19T06:55:27;6.80;;;3.50;;
79365;SDS011;68833;53.160;17.920;2023-04-19T06:57:53;5.30;;;3.50;;
79365;SDS011;68833;53.160;17.920;2023-04-19T07:00:20;4.90;;;3.10;;
79365;SDS011;68833;53.160;17.920;2023-04-19T07:02:48;5.30;;;3.50;;
79365;SDS011;68833;53.160;17.920;2023-04-19T07:05:15;7.30;;;4.50;;
79365;SDS011;68833;53.160;17.920;2023-04-19T07:07:42;7.00;;;4.20;;
79365;SDS011;68833;53.160;17.920;2023-04-19T07:10:08;8.10;;;3.80;;
79365;SDS011;68833;53.160;17.920;2023-04-19T07:12:35;4.80;;;2.90;;
79365;SDS011;68833;53.160;17.920;2023-04-19T07:15:01;7.40;;;4.30;;
79365;SDS011;68833;53.160;17.920;2023-04-19T07:17:28;9.30;;;4.40;;
79365;SDS011;68833;53.160;17.920;2023-04-19T07:19:54;7.00;;;4.00;;
79365;SDS011;68833;53.160;17.920;2023-04-19T07:22:21;6.70;;;4.60;;
79365;SDS011;68833;53.160;17.920;2023-04-19T07:24:47;5.50;;;3.70;;
79365;SDS011;68833;53.160;17.920;2023-04-19T07:27:16;8.10;;;4.80;;
79365;SDS011;68833;53.160;17.920;2023-04-19T07:29:43;8.00;;;4.90;;
79365;SDS011;68833;53.160;17.920;2023-04-19T07:32:09;5.60;;;4.00;;
79365;SDS011;68833;53.160;17.920;2023-04-19T07:34:36;8.10;;;4.40;;
79365;SDS011;68833;53.160;17.920;2023-04-19T07:37:03;9.40;;;7.40;;
79365;SDS011;68833;53.160;17.920;2023-04-19T07:39:29;8.40;;;5.90;;
79365;SDS011;68833;53.160;17.920;2023-04-19T07:41:55;12.60;;;10.60;;
79365;SDS011;68833;53.160;17.920;2023-04-19T07:44:22;8.60;;;7.70;;
79365;SDS011;68833;53.160;17.920;2023-04-19T07:46:49;9.20;;;6.30;;
79365;SDS011;68833;53.160;17.920;2023-04-19T07:49:15;9.50;;;7.30;;
79365;SDS011;68833;53.160;17.920;2023-04-19T07:51:42;8.80;;;6.30;;
79365;SDS011;68833;53.160;17.920;2023-04-19T07:54:08;8.20;;;5.50;;
79365;SDS011;68833;53.160;17.920;2023-04-19T07:56:35;9.00;;;6.60;;
79365;SDS011;68833;53.160;17.920;2023-04-19T07:59:01;15.30;;;12.70;;
79365;SDS011;68833;53.160;17.920;2023-04-19T08:01:28;10.90;;;7.00;;
79365;SDS011;68833;53.160;17.920;2023-04-19T08:03:55;9.80;;;6.80;;
79365;SDS011;68833;53.160;17.920;2023-04-19T08:06:21;11.10;;;7.10;;
79365;SDS011;68833;53.160;17.920;2023-04-19T08:08:47;10.70;;;6.70;;
79365;SDS011;68833;53.160;17.920;2023-04-19T08:11:13;8.00;;;5.80;;
79365;SDS011;68833;53.160;17.920;2023-04-19T08:13:40;10.60;;;7.00;;
79365;SDS011;68833;53.160;17.920;2023-04-19T08:16:07;6.70;;;5.70;;
79365;SDS011;68833;53.160;17.920;2023-04-19T08:18:33;9.40;;;5.60;;
79365;SDS011;68833;53.160;17.920;2023-04-19T08:21:00;7.70;;;5.30;;
79365;SDS011;68833;53.160;17.920;2023-04-19T08:23:26;7.30;;;5.00;;
79365;SDS011;68833;53.160;17.920;2023-04-19T08:25:53;8.70;;;5.80;;
79365;SDS011;68833;53.160;17.920;2023-04-19T08:28:19;6.30;;;4.90;;
79365;SDS011;68833;53.160;17.920;2023-04-19T08:30:45;8.00;;;5.20;;
79365;SDS011;68833;53.160;17.920;2023-04-19T08:33:11;7.10;;;5.10;;
79365;SDS011;68833;53.160;17.920;2023-04-19T08:35:38;10.50;;;5.70;;
79365;SDS011;68833;53.160;17.920;2023-04-19T08:38:06;7.40;;;6.40;;
79365;SDS011;68833;53.160;17.920;2023-04-19T08:40:33;8.50;;;6.50;;
79365;SDS011;68833;53.160;17.920;2023-04-19T08:43:03;8.20;;;6.00;;
79365;SDS011;68833;53.160;17.920;2023-04-19T08:45:31;9.60;;;5.70;;
79365;SDS011;68833;53.160;17.920;2023-04-19T08:47:58;6.50;;;5.40;;
79365;SDS011;68833;53.160;17.920;2023-04-19T08:50:24;6.00;;;5.00;;
79365;SDS011;68833;53.160;17.920;2023-04-19T08:52:51;7.90;;;6.00;;
79365;SDS011;68833;53.160;17.920;2023-04-19T08:55:18;9.90;;;6.30;;
79365;SDS011;68833;53.160;17.920;2023-04-19T08:57:45;18.50;;;11.00;;
79365;SDS011;68833;53.160;17.920;2023-04-19T09:00:11;21.90;;;14.80;;
79365;SDS011;68833;53.160;17.920;2023-04-19T09:02:44;17.10;;;11.10;;
79365;SDS011;68833;53.160;17.920;2023-04-19T09:05:16;12.20;;;9.40;;
79365;SDS011;68833;53.160;17.920;2023-04-19T09:07:44;162.30;;;95.20;;
79365;SDS011;68833;53.160;17.920;2023-04-19T09:10:12;211.80;;;133.90;;
79365;SDS011;68833;53.160;17.920;2023-04-19T09:12:39;39.60;;;29.50;;
79365;SDS011;68833;53.160;17.920;2023-04-19T09:15:06;13.60;;;12.10;;
79365;SDS011;68833;53.160;17.920;2023-04-19T09:17:34;10.40;;;9.30;;
79365;SDS011;68833;53.160;17.920;2023-04-19T09:20:01;14.80;;;13.20;;
79365;SDS011;68833;53.160;17.920;2023-04-19T09:22:29;9.70;;;7.80;;
79365;SDS011;68833;53.160;17.920;2023-04-19T09:24:57;10.50;;;7.00;;
79365;SDS011;68833;53.160;17.920;2023-04-19T09:27:31;14.70;;;10.00;;
79365;SDS011;68833;53.160;17.920;2023-04-19T09:30:02;15.20;;;11.50;;
79365;SDS011;68833;53.160;17.920;2023-04-19T09:32:43;9.60;;;6.60;;
79365;SDS011;68833;53.160;17.920;2023-04-19T09:35:11;7.00;;;5.60;;
79365;SDS011;68833;53.160;17.920;2023-04-19T09:37:37;8.80;;;4.30;;
79365;SDS011;68833;53.160;17.920;2023-04-19T09:40:22;6.90;;;3.60;;
79365;SDS011;68833;53.160;17.920;2023-04-19T09:42:49;8.30;;;4.90;;
79365;SDS011;68833;53.160;17.920;2023-04-19T09:45:16;5.90;;;3.60;;
79365;SDS011;68833;53.160;17.920;2023-04-19T09:47:42;4.80;;;3.00;;
79365;SDS011;68833;53.160;17.920;2023-04-19T09:50:09;5.00;;;4.30;;
79365;SDS011;68833;53.160;17.920;2023-04-19T09:52:36;4.20;;;3.50;;
79365;SDS011;68833;53.160;17.920;2023-04-19T09:55:03;10.60;;;6.80;;
79365;SDS011;68833;53.160;17.920;2023-04-19T09:57:32;5.00;;;3.50;;
79365;SDS011;68833;53.160;17.920;2023-04-19T10:00:00;5.40;;;4.80;;
79365;SDS011;68833;53.160;17.920;2023-04-19T10:02:30;4.00;;;3.30;;
79365;SDS011;68833;53.160;17.920;2023-04-19T10:04:59;5.40;;;4.10;;
79365;SDS011;68833;53.160;17.920;2023-04-19T10:07:28;4.70;;;3.00;;
79365;SDS011;68833;53.160;17.920;2023-04-19T10:09:56;4.70;;;3.20;;
79365;SDS011;68833;53.160;17.920;2023-04-19T10:12:24;5.10;;;3.00;;
79365;SDS011;68833;53.160;17.920;2023-04-19T10:14:54;5.20;;;4.00;;
79365;SDS011;68833;53.160;17.920;2023-04-19T10:17:24;8.80;;;8.10;;
79365;SDS011;68833;53.160;17.920;2023-04-19T10:19:52;7.50;;;4.20;;
79365;SDS011;68833;53.160;17.920;2023-04-19T10:22:24;6.10;;;3.90;;
79365;SDS011;68833;53.160;17.920;2023-04-19T10:25:09;5.00;;;3.40;;
79365;SDS011;68833;53.160;17.920;2023-04-19T10:27:43;3.40;;;3.10;;
79365;SDS011;68833;53.160;17.920;2023-04-19T10:30:19;4.20;;;3.20;;
79365;SDS011;68833;53.160;17.920;2023-04-19T10:32:55;7.00;;;3.40;;
79365;SDS011;68833;53.160;17.920;2023-04-19T10:35:32;4.10;;;2.80;;
79365;SDS011;68833;53.160;17.920;2023-04-19T10:38:00;6.50;;;4.00;;
79365;SDS011;68833;53.160;17.920;2023-04-19T10:43:23;7.90;;;5.10;;
79365;SDS011;68833;53.160;17.920;2023-04-19T10:45:52;9.20;;;6.40;;
79365;SDS011;68833;53.160;17.920;2023-04-19T10:51:04;10.50;;;7.00;;
79365;SDS011;68833;53.160;17.920;2023-04-19T10:53:54;6.70;;;4.80;;
79365;SDS011;68833;53.160;17.920;2023-04-19T10:56:55;6.40;;;4.00;;
79365;SDS011;68833;53.160;17.920;2023-04-19T10:59:37;8.80;;;5.90;;
79365;SDS011;68833;53.160;17.920;2023-04-19T11:07:13;3.50;;;3.00;;
79365;SDS011;68833;53.160;17.920;2023-04-19T11:09:44;4.40;;;3.60;;
79365;SDS011;68833;53.160;17.920;2023-04-19T11:12:12;6.60;;;4.20;;
79365;SDS011;68833;53.160;17.920;2023-04-19T11:17:14;3.70;;;2.30;;
79365;SDS011;68833;53.160;17.920;2023-04-19T11:19:44;3.40;;;2.60;;
79365;SDS011;68833;53.160;17.920;2023-04-19T11:22:23;4.90;;;3.00;;
79365;SDS011;68833;53.160;17.920;2023-04-19T11:24:51;3.60;;;2.90;;
79365;SDS011;68833;53.160;17.920;2023-04-19T11:27:17;3.50;;;2.80;;
79365;SDS011;68833;53.160;17.920;2023-04-19T11:29:43;3.80;;;3.00;;
79365;SDS011;68833;53.160;17.920;2023-04-19T11:32:10;4.40;;;3.20;;
79365;SDS011;68833;53.160;17.920;2023-04-19T11:34:36;4.80;;;3.40;;
79365;SDS011;68833;53.160;17.920;2023-04-19T11:37:03;4.20;;;2.80;;
79365;SDS011;68833;53.160;17.920;2023-04-19T11:39:30;4.40;;;3.20;;
79365;SDS011;68833;53.160;17.920;2023-04-19T11:41:56;4.20;;;2.80;;
79365;SDS011;68833;53.160;17.920;2023-04-19T11:44:23;3.80;;;2.80;;
79365;SDS011;68833;53.160;17.920;2023-04-19T11:47:02;3.80;;;2.50;;
79365;SDS011;68833;53.160;17.920;2023-04-19T11:49:32;3.50;;;3.00;;
79365;SDS011;68833;53.160;17.920;2023-04-19T11:51:59;3.30;;;2.80;;
79365;SDS011;68833;53.160;17.920;2023-04-19T11:54:27;6.70;;;5.50;;
79365;SDS011;68833;53.160;17.920;2023-04-19T11:56:59;4.50;;;4.10;;
79365;SDS011;68833;53.160;17.920;2023-04-19T11:59:28;3.20;;;2.40;;
79365;SDS011;68833;53.160;17.920;2023-04-19T12:01:56;3.30;;;2.70;;
79365;SDS011;68833;53.160;17.920;2023-04-19T12:04:41;4.70;;;2.40;;
79365;SDS011;68833;53.160;17.920;2023-04-19T12:07:09;3.10;;;2.70;;
79365;SDS011;68833;53.160;17.920;2023-04-19T12:09:35;4.80;;;2.80;;
79365;SDS011;68833;53.160;17.920;2023-04-19T12:12:02;5.40;;;3.20;;
79365;SDS011;68833;53.160;17.920;2023-04-19T12:14:28;3.70;;;2.90;;
79365;SDS011;68833;53.160;17.920;2023-04-19T12:17:05;5.70;;;4.70;;
79365;SDS011;68833;53.160;17.920;2023-04-19T12:19:36;4.40;;;3.10;;
79365;SDS011;68833;53.160;17.920;2023-04-19T12:22:11;3.30;;;2.80;;
79365;SDS011;68833;53.160;17.920;2023-04-19T12:24:37;3.40;;;2.80;;
79365;SDS011;68833;53.160;17.920;2023-04-19T12:27:05;4.70;;;4.30;;
79365;SDS011;68833;53.160;17.920;2023-04-19T12:29:32;4.30;;;3.40;;
79365;SDS011;68833;53.160;17.920;2023-04-19T12:31:59;7.40;;;3.60;;
79365;SDS011;68833;53.160;17.920;2023-04-19T12:34:26;3.20;;;2.80;;
79365;SDS011;68833;53.160;17.920;2023-04-19T12:36:56;4.10;;;3.30;;
79365;SDS011;68833;53.160;17.920;2023-04-19T12:39:22;5.00;;;3.80;;
79365;SDS011;68833;53.160;17.920;2023-04-19T12:41:49;4.30;;;3.90;;
79365;SDS011;68833;53.160;17.920;2023-04-19T12:44:15;4.40;;;3.80;;
79365;SDS011;68833;53.160;17.920;2023-04-19T12:46:41;6.30;;;4.40;;
79365;SDS011;68833;53.160;17.920;2023-04-19T12:49:08;5.30;;;4.40;;
79365;SDS011;68833;53.160;17.920;2023-04-19T12:51:34;11.90;;;9.60;;
79365;SDS011;68833;53.160;17.920;2023-04-19T12:54:00;16.40;;;9.30;;
79365;SDS011;68833;53.160;17.920;2023-04-19T12:56:27;7.40;;;5.90;;
79365;SDS011;68833;53.160;17.920;2023-04-19T12:58:53;8.30;;;6.70;;
79365;SDS011;68833;53.160;17.920;2023-04-19T13:01:19;8.20;;;6.10;;
79365;SDS011;68833;53.160;17.920;2023-04-19T13:03:45;8.20;;;5.70;;
79365;SDS011;68833;53.160;17.920;2023-04-19T13:06:12;7.70;;;5.90;;
79365;SDS011;68833;53.160;17.920;2023-04-19T13:08:40;8.60;;;7.50;;
79365;SDS011;68833;53.160;17.920;2023-04-19T13:11:06;9.90;;;7.50;;
79365;SDS011;68833;53.160;17.920;2023-04-19T13:13:33;10.70;;;8.90;;
79365;SDS011;68833;53.160;17.920;2023-04-19T13:16:00;9.80;;;7.80;;
79365;SDS011;68833;53.160;17.920;2023-04-19T13:18:26;10.00;;;8.10;;
79365;SDS011;68833;53.160;17.920;2023-04-19T13:20:52;7.20;;;6.40;;
79365;SDS011;68833;53.160;17.920;2023-04-19T13:23:18;18.20;;;13.50;;
79365;SDS011;68833;53.160;17.920;2023-04-19T13:25:45;12.30;;;9.50;;
79365;SDS011;68833;53.160;17.920;2023-04-19T13:28:11;13.30;;;11.20;;
79365;SDS011;68833;53.160;17.920;2023-04-19T13:30:37;13.10;;;10.80;;
79365;SDS011;68833;53.160;17.920;2023-04-19T13:33:03;13.40;;;11.80;;
79365;SDS011;68833;53.160;17.920;2023-04-19T13:35:29;10.00;;;7.00;;
79365;SDS011;68833;53.160;17.920;2023-04-19T13:37:56;7.50;;;5.50;;
79365;SDS011;68833;53.160;17.920;2023-04-19T13:40:22;7.10;;;5.30;;
79365;SDS011;68833;53.160;17.920;2023-04-19T13:42:48;7.70;;;5.70;;
79365;SDS011;68833;53.160;17.920;2023-04-19T13:45:15;11.90;;;7.90;;
79365;SDS011;68833;53.160;17.920;2023-04-19T13:47:41;7.70;;;5.70;;
79365;SDS011;68833;53.160;17.920;2023-04-19T13:50:07;6.80;;;6.00;;
79365;SDS011;68833;53.160;17.920;2023-04-19T13:52:34;7.60;;;5.50;;
79365;SDS011;68833;53.160;17.920;2023-04-19T13:55:00;9.40;;;7.10;;
79365;SDS011;68833;53.160;17.920;2023-04-19T13:57:26;9.10;;;7.60;;
79365;SDS011;68833;53.160;17.920;2023-04-19T13:59:52;23.00;;;17.90;;
79365;SDS011;68833;53.160;17.920;2023-04-19T14:02:19;9.70;;;8.60;;
79365;SDS011;68833;53.160;17.920;2023-04-19T14:04:45;9.50;;;8.50;;
79365;SDS011;68833;53.160;17.920;2023-04-19T14:07:11;13.10;;;9.80;;
79365;SDS011;68833;53.160;17.920;2023-04-19T14:09:38;8.20;;;7.10;;
79365;SDS011;68833;53.160;17.920;2023-04-19T14:12:05;9.40;;;7.80;;
79365;SDS011;68833;53.160;17.920;2023-04-19T14:14:31;10.00;;;7.50;;
79365;SDS011;68833;53.160;17.920;2023-04-19T14:16:58;8.60;;;7.70;;
79365;SDS011;68833;53.160;17.920;2023-04-19T14:19:24;7.60;;;6.30;;
79365;SDS011;68833;53.160;17.920;2023-04-19T14:21:51;6.60;;;5.70;;
79365;SDS011;68833;53.160;17.920;2023-04-19T14:24:17;8.20;;;6.60;;
79365;SDS011;68833;53.160;17.920;2023-04-19T14:26:43;10.00;;;8.20;;
79365;SDS011;68833;53.160;17.920;2023-04-19T14:29:10;9.50;;;7.00;;
79365;SDS011;68833;53.160;17.920;2023-04-19T14:31:36;7.60;;;6.30;;
79365;SDS011;68833;53.160;17.920;2023-04-19T14:34:02;7.50;;;6.50;;
79365;SDS011;68833;53.160;17.920;2023-04-19T14:36:29;7.50;;;6.60;;
79365;SDS011;68833;53.160;17.920;2023-04-19T14:38:56;8.50;;;7.00;;
79365;SDS011;68833;53.160;17.920;2023-04-19T14:41:22;7.90;;;5.90;;
79365;SDS011;68833;53.160;17.920;2023-04-19T14:43:48;8.10;;;6.80;;
79365;SDS011;68833;53.160;17.920;2023-04-19T14:46:14;6.90;;;5.90;;
79365;SDS011;68833;53.160;17.920;2023-04-19T14:48:40;7.90;;;6.10;;
79365;SDS011;68833;53.160;17.920;2023-04-19T14:51:07;5.70;;;5.10;;
79365;SDS011;68833;53.160;17.920;2023-04-19T14:53:33;8.70;;;6.80;;
79365;SDS011;68833;53.160;17.920;2023-04-19T14:56:01;8.30;;;7.20;;
79365;SDS011;68833;53.160;17.920;2023-04-19T14:58:31;7.90;;;6.90;;
79365;SDS011;68833;53.160;17.920;2023-04-19T15:00:57;7.60;;;5.70;;
79365;SDS011;68833;53.160;17.920;2023-04-19T15:03:24;6.50;;;5.50;;
79365;SDS011;68833;53.160;17.920;2023-04-19T15:05:50;5.50;;;4.90;;
79365;SDS011;68833;53.160;17.920;2023-04-19T15:08:16;6.50;;;5.40;;
79365;SDS011;68833;53.160;17.920;2023-04-19T15:10:43;6.50;;;5.80;;
79365;SDS011;68833;53.160;17.920;2023-04-19T15:13:09;7.50;;;6.40;;
79365;SDS011;68833;53.160;17.920;2023-04-19T15:15:35;8.20;;;7.40;;
79365;SDS011;68833;53.160;17.920;2023-04-19T15:18:01;6.50;;;5.40;;
79365;SDS011;68833;53.160;17.920;2023-04-19T15:20:28;6.70;;;5.70;;
79365;SDS011;68833;53.160;17.920;2023-04-19T15:22:54;8.60;;;6.30;;
79365;SDS011;68833;53.160;17.920;2023-04-19T15:25:20;5.50;;;4.30;;
79365;SDS011;68833;53.160;17.920;2023-04-19T15:27:46;5.70;;;4.30;;
79365;SDS011;68833;53.160;17.920;2023-04-19T15:30:13;6.50;;;4.80;;
79365;SDS011;68833;53.160;17.920;2023-04-19T15:32:39;9.10;;;6.80;;
79365;SDS011;68833;53.160;17.920;2023-04-19T15:35:06;8.00;;;6.50;;
79365;SDS011;68833;53.160;17.920;2023-04-19T15:37:33;7.20;;;4.90;;
79365;SDS011;68833;53.160;17.920;2023-04-19T15:39:59;8.90;;;6.40;;
79365;SDS011;68833;53.160;17.920;2023-04-19T15:42:25;9.50;;;8.50;;
79365;SDS011;68833;53.160;17.920;2023-04-19T15:44:52;10.10;;;8.20;;
79365;SDS011;68833;53.160;17.920;2023-04-19T15:47:18;7.50;;;6.40;;
79365;SDS011;68833;53.160;17.920;2023-04-19T15:49:44;10.50;;;9.10;;
79365;SDS011;68833;53.160;17.920;2023-04-19T15:52:12;12.60;;;11.30;;
79365;SDS011;68833;53.160;17.920;2023-04-19T15:54:38;8.10;;;6.40;;
79365;SDS011;68833;53.160;17.920;2023-04-19T15:57:04;8.30;;;6.00;;
79365;SDS011;68833;53.160;17.920;2023-04-19T15:59:30;26.00;;;16.50;;
79365;SDS011;68833;53.160;17.920;2023-04-19T16:01:57;43.30;;;26.50;;
79365;SDS011;68833;53.160;17.920;2023-04-19T16:04:26;21.60;;;14.60;;
79365;SDS011;68833;53.160;17.920;2023-04-19T16:06:54;13.30;;;9.40;;
79365;SDS011;68833;53.160;17.920;2023-04-19T16:09:20;19.40;;;14.80;;
79365;SDS011;68833;53.160;17.920;2023-04-19T16:11:47;11.00;;;9.30;;
79365;SDS011;68833;53.160;17.920;2023-04-19T16:14:14;15.40;;;11.00;;
79365;SDS011;68833;53.160;17.920;2023-04-19T16:16:40;15.40;;;10.40;;
79365;SDS011;68833;53.160;17.920;2023-04-19T16:19:07;12.70;;;9.70;;
79365;SDS011;68833;53.160;17.920;2023-04-19T16:21:33;24.10;;;13.50;;
79365;SDS011;68833;53.160;17.920;2023-04-19T16:24:00;83.10;;;35.80;;
79365;SDS011;68833;53.160;17.920;2023-04-19T16:26:26;86.20;;;36.90;;
79365;SDS011;68833;53.160;17.920;2023-04-19T16:28:52;51.00;;;22.90;;
79365;SDS011;68833;53.160;17.920;2023-04-19T16:31:21;85.00;;;33.80;;
79365;SDS011;68833;53.160;17.920;2023-04-19T16:33:47;63.70;;;25.60;;
79365;SDS011;68833;53.160;17.920;2023-04-19T16:36:14;49.90;;;21.30;;
79365;SDS011;68833;53.160;17.920;2023-04-19T16:38:40;35.80;;;16.00;;
79365;SDS011;68833;53.160;17.920;2023-04-19T16:41:06;23.60;;;12.30;;
79365;SDS011;68833;53.160;17.920;2023-04-19T16:43:32;38.40;;;19.40;;
79365;SDS011;68833;53.160;17.920;2023-04-19T16:45:59;14.80;;;10.10;;
79365;SDS011;68833;53.160;17.920;2023-04-19T16:48:25;14.10;;;9.00;;
79365;SDS011;68833;53.160;17.920;2023-04-19T16:50:52;9.90;;;6.10;;
79365;SDS011;68833;53.160;17.920;2023-04-19T16:53:18;12.20;;;8.70;;
79365;SDS011;68833;53.160;17.920;2023-04-19T16:55:44;9.60;;;7.10;;
79365;SDS011;68833;53.160;17.920;2023-04-19T16:58:10;9.70;;;8.40;;
79365;SDS011;68833;53.160;17.920;2023-04-19T17:00:37;11.60;;;8.90;;
79365;SDS011;68833;53.160;17.920;2023-04-19T17:03:03;9.80;;;7.20;;
79365;SDS011;68833;53.160;17.920;2023-04-19T17:05:29;7.60;;;5.80;;
79365;SDS011;68833;53.160;17.920;2023-04-19T17:07:56;10.80;;;7.80;;
79365;SDS011;68833;53.160;17.920;2023-04-19T17:10:22;9.70;;;6.10;;
79365;SDS011;68833;53.160;17.920;2023-04-19T17:12:49;9.30;;;6.60;;
79365;SDS011;68833;53.160;17.920;2023-04-19T17:15:15;14.60;;;9.60;;
79365;SDS011;68833;53.160;17.920;2023-04-19T17:17:42;12.10;;;8.80;;
79365;SDS011;68833;53.160;17.920;2023-04-19T17:20:08;10.40;;;8.60;;
79365;SDS011;68833;53.160;17.920;2023-04-19T17:22:34;12.00;;;9.00;;
79365;SDS011;68833;53.160;17.920;2023-04-19T17:25:01;12.60;;;8.40;;
79365;SDS011;68833;53.160;17.920;2023-04-19T17:27:27;7.60;;;6.10;;
79365;SDS011;68833;53.160;17.920;2023-04-19T17:29:53;16.90;;;10.50;;
79365;SDS011;68833;53.160;17.920;2023-04-19T17:32:19;11.10;;;7.80;;
79365;SDS011;68833;53.160;17.920;2023-04-19T17:34:45;13.50;;;9.00;;
79365;SDS011;68833;53.160;17.920;2023-04-19T17:37:11;8.80;;;7.20;;
79365;SDS011;68833;53.160;17.920;2023-04-19T17:39:38;10.70;;;7.40;;
79365;SDS011;68833;53.160;17.920;2023-04-19T17:42:04;13.60;;;8.60;;
79365;SDS011;68833;53.160;17.920;2023-04-19T17:44:30;8.10;;;6.70;;
79365;SDS011;68833;53.160;17.920;2023-04-19T17:46:56;14.70;;;10.10;;
79365;SDS011;68833;53.160;17.920;2023-04-19T17:49:22;15.00;;;11.30;;
79365;SDS011;68833;53.160;17.920;2023-04-19T17:51:51;26.10;;;18.00;;
79365;SDS011;68833;53.160;17.920;2023-04-19T17:54:19;13.10;;;9.70;;
79365;SDS011;68833;53.160;17.920;2023-04-19T17:56:45;12.90;;;9.70;;